Time,TemperatureF,DewpointF,PressureIn,WindDirection,WindDirectionDegrees,WindSpeedMPH,WindSpeedGustMPH,Humidity,HourlyPrecipIn,Conditions,Clouds,dailyrainin,SolarRadiationWatts/m^2,SoftwareType,DateUTC
2013-01-03 00:00:00,21.6,19.4,30.29,WNW,288,2.0,5.0,91,0.00,,,0.00,0.0,meteohub,2013-01-03 06:00:00,
2013-01-03 00:06:00,21.6,19.4,30.29,WNW,293,2.0,5.0,91,0.00,,,0.00,0.0,meteohub,2013-01-03 06:06:00,
2013-01-03 00:12:00,21.6,19.4,30.29,NNW,336,0.0,4.0,91,0.00,,,0.00,0.0,meteohub,2013-01-03 06:12:00,
2013-01-03 00:18:00,21.7,19.6,30.29,NW,306,2.0,6.0,91,0.00,,,0.00,0.0,meteohub,2013-01-03 06:18:00,
2013-01-03 00:25:00,21.7,19.6,30.29,WNW,298,1.0,6.0,91,0.00,,,0.00,0.0,meteohub,2013-01-03 06:25:00,
2013-01-03 00:31:00,21.9,19.8,30.29,NW,307,4.0,7.0,91,0.00,,,0.00,0.0,meteohub,2013-01-03 06:31:00,
2013-01-03 00:37:00,21.9,19.4,30.29,West,270,2.0,7.0,90,0.00,,,0.00,0.0,meteohub,2013-01-03 06:37:00,
2013-01-03 00:43:00,21.7,19.0,30.30,West,279,0.0,7.0,89,0.00,,,0.00,0.0,meteohub,2013-01-03 06:43:00,
2013-01-03 00:49:00,21.7,19.0,30.30,NNW,332,1.0,7.0,89,0.00,,,0.00,0.0,meteohub,2013-01-03 06:49:00,
2013-01-03 00:56:00,21.6,18.9,30.30,NW,314,0.0,6.0,89,0.00,,,0.00,0.0,meteohub,2013-01-03 06:56:00,
2013-01-03 01:02:00,21.6,18.9,30.30,NW,306,3.0,6.0,89,0.00,,,0.00,0.0,meteohub,2013-01-03 07:02:00,
2013-01-03 01:08:00,21.4,18.3,30.30,NW,321,5.0,13.0,88,0.00,,,0.00,0.0,meteohub,2013-01-03 07:08:00,
2013-01-03 01:14:00,21.0,18.0,30.30,WNW,292,1.0,13.0,88,0.00,,,0.00,0.0,meteohub,2013-01-03 07:14:00,
2013-01-03 01:20:00,20.8,17.8,30.30,NW,311,6.0,11.0,88,0.00,,,0.00,0.0,meteohub,2013-01-03 07:20:00,
2013-01-03 01:26:00,20.7,17.4,30.30,North,355,4.0,11.0,87,0.00,,,0.00,0.0,meteohub,2013-01-03 07:26:00,
2013-01-03 01:32:00,20.5,17.2,30.31,NW,324,4.0,11.0,87,0.00,,,0.00,0.0,meteohub,2013-01-03 07:32:00,
2013-01-03 01:39:00,20.5,16.9,30.31,NNW,335,1.0,11.0,86,0.00,,,0.00,0.0,meteohub,2013-01-03 07:39:00,
2013-01-03 01:45:00,20.1,16.9,30.31,North,350,3.0,12.0,87,0.00,,,0.00,0.0,meteohub,2013-01-03 07:45:00,
2013-01-03 01:51:00,20.1,16.9,30.32,West,281,7.0,12.0,87,0.00,,,0.00,0.0,meteohub,2013-01-03 07:51:00,
2013-01-03 01:57:00,20.1,16.7,30.32,NNW,329,1.0,11.0,86,0.00,,,0.00,0.0,meteohub,2013-01-03 07:57:00,
2013-01-03 02:03:00,20.1,16.9,30.32,NNW,331,2.0,7.0,87,0.00,,,0.00,0.0,meteohub,2013-01-03 08:03:00,
2013-01-03 02:09:00,20.1,16.9,30.32,WSW,255,6.0,7.0,87,0.00,,,0.00,0.0,meteohub,2013-01-03 08:09:00,
2013-01-03 02:15:00,19.9,16.5,30.32,West,267,2.0,7.0,86,0.00,,,0.00,0.0,meteohub,2013-01-03 08:15:00,
2013-01-03 02:22:00,19.9,16.5,30.33,NNW,342,1.0,10.0,86,0.00,,,0.00,0.0,meteohub,2013-01-03 08:22:00,
2013-01-03 02:28:00,19.9,16.5,30.33,WSW,240,0.0,10.0,86,0.00,,,0.00,0.0,meteohub,2013-01-03 08:28:00,
2013-01-03 02:34:00,19.8,16.3,30.33,NW,313,1.0,10.0,86,0.00,,,0.00,0.0,meteohub,2013-01-03 08:34:00,
2013-01-03 02:40:00,19.8,16.3,30.33,West,281,2.0,10.0,86,0.00,,,0.00,0.0,meteohub,2013-01-03 08:40:00,
2013-01-03 02:46:00,19.8,16.3,30.33,NNW,329,1.0,13.0,86,0.00,,,0.00,0.0,meteohub,2013-01-03 08:46:00,
2013-01-03 02:52:00,19.6,16.2,30.33,WNW,303,1.0,13.0,86,0.00,,,0.00,0.0,meteohub,2013-01-03 08:52:00,
2013-01-03 02:58:00,19.6,16.2,30.34,North,355,6.0,8.0,86,0.00,,,0.00,0.0,meteohub,2013-01-03 08:58:00,
2013-01-03 03:05:00,19.6,16.2,30.34,West,268,1.0,8.0,86,0.00,,,0.00,0.0,meteohub,2013-01-03 09:05:00,
2013-01-03 03:11:00,19.4,15.6,30.34,WSW,254,4.0,8.0,85,0.00,,,0.00,0.0,meteohub,2013-01-03 09:11:00,
2013-01-03 03:17:00,19.2,15.4,30.35,WNW,302,1.0,8.0,85,0.00,,,0.00,0.0,meteohub,2013-01-03 09:17:00,
2013-01-03 03:23:00,19.2,15.8,30.35,NW,306,1.0,6.0,86,0.00,,,0.00,0.0,meteohub,2013-01-03 09:23:00,
2013-01-03 03:29:00,19.2,15.4,30.35,NW,323,4.0,6.0,85,0.00,,,0.00,0.0,meteohub,2013-01-03 09:29:00,
2013-01-03 03:35:00,19.0,15.3,30.35,NW,320,5.0,10.0,85,0.00,,,0.00,0.0,meteohub,2013-01-03 09:35:00,
2013-01-03 03:42:00,18.9,15.1,30.35,WNW,303,6.0,10.0,85,0.00,,,0.00,0.0,meteohub,2013-01-03 09:42:00,
2013-01-03 03:48:00,18.9,15.1,30.35,WNW,286,5.0,10.0,85,0.00,,,0.00,0.0,meteohub,2013-01-03 09:48:00,
2013-01-03 03:54:00,18.9,15.1,30.35,NW,321,3.0,9.0,85,0.00,,,0.00,0.0,meteohub,2013-01-03 09:54:00,
2013-01-03 04:00:00,18.7,14.9,30.36,WNW,290,5.0,9.0,85,0.00,,,0.00,0.0,meteohub,2013-01-03 10:00:00,
2013-01-03 04:06:00,18.5,14.7,30.36,North,355,3.0,11.0,85,0.00,,,0.00,0.0,meteohub,2013-01-03 10:06:00,
2013-01-03 04:12:00,18.3,14.5,30.36,NW,313,3.0,11.0,85,0.00,,,0.00,0.0,meteohub,2013-01-03 10:12:00,
2013-01-03 04:18:00,18.3,14.5,30.36,NW,320,5.0,10.0,85,0.00,,,0.00,0.0,meteohub,2013-01-03 10:18:00,
2013-01-03 04:25:00,18.1,14.2,30.35,WNW,283,1.0,9.0,84,0.00,,,0.00,0.0,meteohub,2013-01-03 10:25:00,
2013-01-03 04:31:00,18.0,14.0,30.36,NW,311,3.0,10.0,84,0.00,,,0.00,0.0,meteohub,2013-01-03 10:31:00,
2013-01-03 04:37:00,17.8,13.8,30.36,NW,305,5.0,10.0,84,0.00,,,0.00,0.0,meteohub,2013-01-03 10:37:00,
2013-01-03 04:43:00,17.6,13.6,30.37,NNW,338,2.0,10.0,84,0.00,,,0.00,0.0,meteohub,2013-01-03 10:43:00,
2013-01-03 04:49:00,17.6,13.8,30.37,WNW,298,3.0,10.0,85,0.00,,,0.00,0.0,meteohub,2013-01-03 10:49:00,
2013-01-03 04:56:00,17.4,13.6,30.38,NNW,339,1.0,10.0,85,0.00,,,0.00,0.0,meteohub,2013-01-03 10:56:00,
2013-01-03 05:02:00,17.4,13.5,30.38,WNW,283,1.0,11.0,84,0.00,,,0.00,0.0,meteohub,2013-01-03 11:02:00,
2013-01-03 05:08:00,17.4,13.6,30.38,WSW,240,2.0,11.0,85,0.00,,,0.00,0.0,meteohub,2013-01-03 11:08:00,
2013-01-03 05:14:00,17.2,13.5,30.38,WSW,256,0.0,9.0,85,0.00,,,0.00,0.0,meteohub,2013-01-03 11:14:00,
2013-01-03 05:20:00,17.1,13.1,30.38,NW,310,5.0,8.0,84,0.00,,,0.00,0.0,meteohub,2013-01-03 11:20:00,
2013-01-03 05:26:00,17.1,13.1,30.38,NNW,340,5.0,10.0,84,0.00,,,0.00,0.0,meteohub,2013-01-03 11:26:00,
2013-01-03 05:32:00,16.9,12.9,30.39,WNW,294,3.0,10.0,84,0.00,,,0.00,0.0,meteohub,2013-01-03 11:32:00,
2013-01-03 05:37:00,16.9,12.9,30.39,WNW,292,7.0,10.0,84,0.00,,,0.00,0.0,meteohub,2013-01-03 11:37:00,
2013-01-03 05:43:00,16.7,12.7,30.40,NW,311,3.0,10.0,84,0.00,,,0.00,0.0,meteohub,2013-01-03 11:43:00,
2013-01-03 05:49:00,16.7,12.7,30.40,NNE,15,9.0,9.0,84,0.00,,,0.00,0.0,meteohub,2013-01-03 11:49:00,
2013-01-03 05:55:00,16.5,12.2,30.40,NW,311,1.0,12.0,83,0.00,,,0.00,0.0,meteohub,2013-01-03 11:55:00,
2013-01-03 06:01:00,16.3,12.0,30.40,NNE,22,5.0,12.0,83,0.00,,,0.00,0.0,meteohub,2013-01-03 12:01:00,
2013-01-03 06:07:00,16.2,12.2,30.40,North,355,4.0,12.0,84,0.00,,,0.00,0.0,meteohub,2013-01-03 12:07:00,
2013-01-03 06:14:00,16.2,12.2,30.40,WNW,285,8.0,10.0,84,0.00,,,0.00,0.0,meteohub,2013-01-03 12:14:00,
2013-01-03 06:20:00,16.2,12.2,30.41,WNW,290,3.0,9.0,84,0.00,,,0.00,0.0,meteohub,2013-01-03 12:20:00,
2013-01-03 06:26:00,16.2,12.2,30.41,NW,311,5.0,9.0,84,0.00,,,0.00,0.0,meteohub,2013-01-03 12:26:00,
2013-01-03 06:32:00,16.0,11.7,30.41,NW,311,4.0,9.0,83,0.00,,,0.00,0.0,meteohub,2013-01-03 12:32:00,
2013-01-03 06:38:00,16.0,12.0,30.41,NNW,342,6.0,9.0,84,0.00,,,0.00,0.0,meteohub,2013-01-03 12:38:00,
2013-01-03 06:44:00,16.0,11.7,30.42,WNW,300,1.0,9.0,83,0.00,,,0.00,0.0,meteohub,2013-01-03 12:44:00,
2013-01-03 06:51:00,15.8,11.5,30.42,NNW,343,2.0,9.0,83,0.00,,,0.00,0.0,meteohub,2013-01-03 12:51:00,
2013-01-03 06:57:00,15.4,11.1,30.43,NW,315,4.0,10.0,83,0.00,,,0.00,0.0,meteohub,2013-01-03 12:57:00,
2013-01-03 07:03:00,15.3,11.3,30.42,West,278,9.0,13.0,84,0.00,,,0.00,0.0,meteohub,2013-01-03 13:03:00,
2013-01-03 07:09:00,15.1,11.1,30.43,NNE,24,0.0,13.0,84,0.00,,,0.00,0.0,meteohub,2013-01-03 13:09:00,
2013-01-03 07:15:00,15.1,11.1,30.42,North,5,2.0,13.0,84,0.00,,,0.00,0.0,meteohub,2013-01-03 13:15:00,
2013-01-03 07:21:00,14.9,10.9,30.43,WNW,303,3.0,8.0,84,0.00,,,0.00,0.0,meteohub,2013-01-03 13:21:00,
2013-01-03 07:27:00,14.7,10.8,30.43,NW,308,4.0,8.0,84,0.00,,,0.00,0.0,meteohub,2013-01-03 13:27:00,
2013-01-03 07:34:00,14.7,10.8,30.43,NW,317,4.0,7.0,84,0.00,,,0.00,0.0,meteohub,2013-01-03 13:34:00,
2013-01-03 07:40:00,14.7,11.1,30.43,NW,307,5.0,7.0,85,0.00,,,0.00,0.0,meteohub,2013-01-03 13:40:00,
2013-01-03 07:46:00,14.7,11.1,30.43,North,0,2.0,11.0,85,0.00,,,0.00,0.0,meteohub,2013-01-03 13:46:00,
2013-01-03 07:52:00,14.7,11.1,30.43,North,355,0.0,11.0,85,0.00,,,0.00,5.0,meteohub,2013-01-03 13:52:00,
2013-01-03 07:58:00,14.7,11.1,30.43,NNW,340,3.0,11.0,85,0.00,,,0.00,5.0,meteohub,2013-01-03 13:58:00,
2013-01-03 08:04:00,14.7,11.1,30.44,NNE,16,8.0,8.0,85,0.00,,,0.00,7.0,meteohub,2013-01-03 14:04:00,
2013-01-03 08:11:00,14.5,10.9,30.44,NW,321,5.0,11.0,85,0.00,,,0.00,12.0,meteohub,2013-01-03 14:11:00,
2013-01-03 08:17:00,14.4,10.9,30.44,West,279,2.0,11.0,86,0.00,,,0.00,16.0,meteohub,2013-01-03 14:17:00,
2013-01-03 08:23:00,14.4,10.9,30.45,WSW,257,0.0,7.0,86,0.00,,,0.00,21.0,meteohub,2013-01-03 14:23:00,
2013-01-03 08:29:00,14.5,11.1,30.45,WNW,289,0.0,7.0,86,0.00,,,0.00,23.0,meteohub,2013-01-03 14:29:00,
2013-01-03 08:35:00,14.5,11.1,30.45,West,266,1.0,6.0,86,0.00,,,0.00,26.0,meteohub,2013-01-03 14:35:00,
2013-01-03 08:41:00,14.7,11.3,30.45,West,265,2.0,6.0,86,0.00,,,0.00,28.0,meteohub,2013-01-03 14:41:00,
2013-01-03 08:47:00,14.7,11.3,30.45,SW,226,2.0,7.0,86,0.00,,,0.00,33.0,meteohub,2013-01-03 14:47:00,
2013-01-03 08:54:00,14.9,11.7,30.46,West,265,3.0,7.0,87,0.00,,,0.00,37.0,meteohub,2013-01-03 14:54:00,
2013-01-03 09:00:00,15.1,11.8,30.46,NW,321,2.0,7.0,87,0.00,,,0.00,44.0,meteohub,2013-01-03 15:00:00,
2013-01-03 09:06:00,15.1,11.8,30.46,West,259,0.0,8.0,87,0.00,,,0.00,53.0,meteohub,2013-01-03 15:06:00,
2013-01-03 09:12:00,15.1,11.8,30.47,NW,304,1.0,8.0,87,0.00,,,0.00,56.0,meteohub,2013-01-03 15:12:00,
2013-01-03 09:18:00,15.1,11.8,30.47,West,281,2.0,8.0,87,0.00,,,0.00,60.0,meteohub,2013-01-03 15:18:00,
2013-01-03 09:24:00,15.1,11.7,30.47,WNW,283,2.0,7.0,86,0.00,,,0.00,65.0,meteohub,2013-01-03 15:24:00,
2013-01-03 09:30:00,15.1,11.7,30.47,NW,320,2.0,10.0,86,0.00,,,0.00,79.0,meteohub,2013-01-03 15:30:00,
2013-01-03 09:37:00,15.1,11.7,30.47,West,269,1.0,10.0,86,0.00,,,0.00,83.0,meteohub,2013-01-03 15:37:00,
2013-01-03 09:43:00,15.1,11.7,30.47,West,281,2.0,7.0,86,0.00,,,0.00,86.0,meteohub,2013-01-03 15:43:00,
2013-01-03 09:49:00,15.3,11.8,30.48,NW,319,2.0,7.0,86,0.00,,,0.00,95.0,meteohub,2013-01-03 15:49:00,
2013-01-03 09:55:00,15.3,11.5,30.48,NW,304,4.0,7.0,85,0.00,,,0.00,114.0,meteohub,2013-01-03 15:55:00,
2013-01-03 10:01:00,15.3,11.5,30.48,NW,316,3.0,6.0,85,0.00,,,0.00,125.0,meteohub,2013-01-03 16:01:00,
2013-01-03 10:07:00,15.3,11.5,30.48,WNW,300,6.0,6.0,85,0.00,,,0.00,118.0,meteohub,2013-01-03 16:07:00,
2013-01-03 10:13:00,15.3,11.5,30.49,WSW,253,2.0,8.0,85,0.00,,,0.00,127.0,meteohub,2013-01-03 16:13:00,
2013-01-03 10:20:00,15.3,11.3,30.49,WNW,292,6.0,8.0,84,0.00,,,0.00,151.0,meteohub,2013-01-03 16:20:00,
2013-01-03 10:26:00,14.9,10.9,30.49,WNW,289,4.0,8.0,84,0.00,,,0.00,178.0,meteohub,2013-01-03 16:26:00,
2013-01-03 10:32:00,15.1,10.9,30.49,WNW,293,2.0,12.0,83,0.00,,,0.00,179.0,meteohub,2013-01-03 16:32:00,
2013-01-03 10:38:00,15.1,11.1,30.49,West,260,5.0,12.0,84,0.00,,,0.00,174.0,meteohub,2013-01-03 16:38:00,
2013-01-03 10:44:00,15.1,10.9,30.49,WNW,288,1.0,12.0,83,0.00,,,0.00,190.0,meteohub,2013-01-03 16:44:00,
2013-01-03 10:50:00,15.3,11.1,30.49,NW,304,7.0,9.0,83,0.00,,,0.00,197.0,meteohub,2013-01-03 16:50:00,
2013-01-03 10:56:00,15.3,10.8,30.49,NW,324,1.0,9.0,82,0.00,,,0.00,214.0,meteohub,2013-01-03 16:56:00,
2013-01-03 11:02:00,15.4,10.9,30.49,NNW,329,4.0,9.0,82,0.00,,,0.00,199.0,meteohub,2013-01-03 17:02:00,
2013-01-03 11:07:00,15.4,10.6,30.49,West,267,2.0,10.0,81,0.00,,,0.00,223.0,meteohub,2013-01-03 17:07:00,
2013-01-03 11:13:00,15.8,10.9,30.48,North,355,3.0,10.0,81,0.00,,,0.00,322.0,meteohub,2013-01-03 17:13:00,
2013-01-03 11:19:00,16.2,11.1,30.48,WNW,295,5.0,9.0,80,0.00,,,0.00,290.0,meteohub,2013-01-03 17:19:00,
2013-01-03 11:25:00,16.2,10.8,30.48,WNW,296,2.0,8.0,79,0.00,,,0.00,276.0,meteohub,2013-01-03 17:25:00,
2013-01-03 11:31:00,16.3,10.8,30.48,NW,325,2.0,9.0,78,0.00,,,0.00,369.0,meteohub,2013-01-03 17:31:00,
2013-01-03 11:37:00,16.9,11.3,30.47,WNW,286,3.0,9.0,78,0.00,,,0.00,387.0,meteohub,2013-01-03 17:37:00,
2013-01-03 11:44:00,16.9,10.6,30.47,WSW,246,7.0,8.0,76,0.00,,,0.00,396.0,meteohub,2013-01-03 17:44:00,
2013-01-03 11:50:00,16.7,10.8,30.47,North,0,5.0,9.0,77,0.00,,,0.00,260.0,meteohub,2013-01-03 17:50:00,
2013-01-03 11:56:00,16.7,10.8,30.47,West,279,1.0,8.0,77,0.00,,,0.00,371.0,meteohub,2013-01-03 17:56:00,
2013-01-03 12:02:00,16.9,10.4,30.46,NW,325,2.0,9.0,75,0.00,,,0.00,381.0,meteohub,2013-01-03 18:02:00,
2013-01-03 12:08:00,16.2,9.9,30.46,NNE,26,2.0,9.0,76,0.00,,,0.00,371.0,meteohub,2013-01-03 18:08:00,
2013-01-03 12:14:00,16.5,10.2,30.46,WSW,240,3.0,8.0,76,0.00,,,0.00,385.0,meteohub,2013-01-03 18:14:00,
2013-01-03 12:20:00,16.7,10.2,30.46,SW,221,2.0,9.0,75,0.00,,,0.00,383.0,meteohub,2013-01-03 18:20:00,
2013-01-03 12:27:00,16.7,10.4,30.45,NW,306,4.0,11.0,76,0.00,,,0.00,387.0,meteohub,2013-01-03 18:27:00,
2013-01-03 12:33:00,17.1,10.6,30.45,NNW,327,2.0,11.0,75,0.00,,,0.00,380.0,meteohub,2013-01-03 18:33:00,
2013-01-03 12:39:00,17.1,10.6,30.45,North,355,1.0,11.0,75,0.00,,,0.00,385.0,meteohub,2013-01-03 18:39:00,
2013-01-03 12:45:00,16.9,10.0,30.45,WSW,253,3.0,9.0,74,0.00,,,0.00,376.0,meteohub,2013-01-03 18:45:00,
2013-01-03 12:51:00,17.2,10.8,30.45,West,265,3.0,10.0,75,0.00,,,0.00,376.0,meteohub,2013-01-03 18:51:00,
2013-01-03 12:57:00,17.4,10.2,30.45,WSW,239,2.0,10.0,73,0.00,,,0.00,376.0,meteohub,2013-01-03 18:57:00,
2013-01-03 13:04:00,17.2,10.0,30.45,SW,223,1.0,9.0,73,0.00,,,0.00,373.0,meteohub,2013-01-03 19:04:00,
2013-01-03 13:10:00,17.4,10.2,30.45,WSW,244,4.0,10.0,73,0.00,,,0.00,367.0,meteohub,2013-01-03 19:10:00,
2013-01-03 13:16:00,17.2,10.0,30.45,SW,222,5.0,10.0,73,0.00,,,0.00,360.0,meteohub,2013-01-03 19:16:00,
2013-01-03 13:54:00,17.6,9.9,30.45,West,262,2.0,12.0,71,0.00,,,0.00,156.0,meteohub,2013-01-03 19:54:00,
2013-01-03 14:00:00,17.2,9.5,30.45,West,270,1.0,12.0,71,0.00,,,0.00,221.0,meteohub,2013-01-03 20:00:00,
2013-01-03 14:06:00,17.4,9.9,30.45,SW,225,4.0,12.0,72,0.00,,,0.00,135.0,meteohub,2013-01-03 20:06:00,
2013-01-03 14:12:00,17.4,9.7,30.45,SW,227,4.0,12.0,71,0.00,,,0.00,276.0,meteohub,2013-01-03 20:12:00,
2013-01-03 14:18:00,17.2,9.5,30.45,West,261,4.0,9.0,71,0.00,,,0.00,193.0,meteohub,2013-01-03 20:18:00,
2013-01-03 14:25:00,17.4,9.7,30.45,West,273,4.0,10.0,71,0.00,,,0.00,190.0,meteohub,2013-01-03 20:25:00,
2013-01-03 14:31:00,17.2,9.5,30.45,WSW,247,8.0,10.0,71,0.00,,,0.00,213.0,meteohub,2013-01-03 20:31:00,
2013-01-03 14:37:00,17.1,9.3,30.46,WNW,288,3.0,10.0,71,0.00,,,0.00,190.0,meteohub,2013-01-03 20:37:00,
2013-01-03 14:43:00,17.1,9.0,30.45,SW,225,5.0,10.0,70,0.00,,,0.00,77.0,meteohub,2013-01-03 20:43:00,
2013-01-03 14:49:00,16.7,8.2,30.45,WSW,254,4.0,10.0,69,0.00,,,0.00,120.0,meteohub,2013-01-03 20:49:00,
2013-01-03 14:55:00,16.7,8.1,30.45,SW,236,2.0,11.0,68,0.00,,,0.00,190.0,meteohub,2013-01-03 20:55:00,
2013-01-03 15:01:00,16.5,7.5,30.45,SW,228,1.0,13.0,67,0.00,,,0.00,185.0,meteohub,2013-01-03 21:01:00,
2013-01-03 15:07:00,16.7,7.3,30.45,SW,219,1.0,13.0,66,0.00,,,0.00,167.0,meteohub,2013-01-03 21:07:00,
2013-01-03 15:14:00,16.7,7.7,30.45,WSW,258,0.0,13.0,67,0.00,,,0.00,139.0,meteohub,2013-01-03 21:14:00,
2013-01-03 15:20:00,16.7,7.7,30.45,WSW,240,2.0,11.0,67,0.00,,,0.00,105.0,meteohub,2013-01-03 21:20:00,
2013-01-03 15:26:00,16.9,7.9,30.45,North,350,0.0,6.0,67,0.00,,,0.00,155.0,meteohub,2013-01-03 21:26:00,
2013-01-03 15:32:00,16.9,7.5,30.45,WSW,243,6.0,9.0,66,0.00,,,0.00,146.0,meteohub,2013-01-03 21:32:00,
2013-01-03 15:38:00,16.7,7.3,30.45,SW,215,3.0,9.0,66,0.00,,,0.00,116.0,meteohub,2013-01-03 21:38:00,
2013-01-03 15:44:00,16.3,7.0,30.46,SW,233,6.0,9.0,66,0.00,,,0.00,53.0,meteohub,2013-01-03 21:44:00,
2013-01-03 15:50:00,15.8,7.2,30.45,South,188,3.0,8.0,68,0.00,,,0.00,30.0,meteohub,2013-01-03 21:50:00,
2013-01-03 15:57:00,15.4,6.8,30.45,SW,215,2.0,8.0,68,0.00,,,0.00,23.0,meteohub,2013-01-03 21:57:00,
2013-01-03 16:03:00,15.3,7.0,30.47,SW,214,0.0,8.0,69,0.00,,,0.00,21.0,meteohub,2013-01-03 22:03:00,
2013-01-03 16:09:00,15.3,7.2,30.47,WSW,254,3.0,8.0,70,0.00,,,0.00,19.0,meteohub,2013-01-03 22:09:00,
2013-01-03 16:15:00,15.1,7.0,30.46,West,267,4.0,8.0,70,0.00,,,0.00,18.0,meteohub,2013-01-03 22:15:00,
2013-01-03 16:21:00,15.1,7.3,30.46,SW,219,3.0,8.0,71,0.00,,,0.00,16.0,meteohub,2013-01-03 22:21:00,
2013-01-03 16:27:00,14.9,7.2,30.45,West,265,2.0,8.0,71,0.00,,,0.00,12.0,meteohub,2013-01-03 22:27:00,
2013-01-03 16:33:00,14.7,7.3,30.45,SSW,212,3.0,8.0,72,0.00,,,0.00,11.0,meteohub,2013-01-03 22:33:00,
2013-01-03 16:40:00,14.7,7.3,30.45,SSW,208,2.0,7.0,72,0.00,,,0.00,9.0,meteohub,2013-01-03 22:40:00,
2013-01-03 16:46:00,14.5,7.5,30.45,SSW,212,2.0,7.0,73,0.00,,,0.00,5.0,meteohub,2013-01-03 22:46:00,
2013-01-03 16:52:00,14.4,7.5,30.46,West,262,3.0,5.0,74,0.00,,,0.00,5.0,meteohub,2013-01-03 22:52:00,
2013-01-03 16:58:00,14.4,7.9,30.46,WNW,292,0.0,7.0,75,0.00,,,0.00,0.0,meteohub,2013-01-03 22:58:00,
2013-01-03 17:04:00,14.2,8.1,30.46,WSW,252,2.0,7.0,76,0.00,,,0.00,0.0,meteohub,2013-01-03 23:04:00,
2013-01-03 17:10:00,14.2,8.1,30.46,West,259,3.0,7.0,76,0.00,,,0.00,0.0,meteohub,2013-01-03 23:10:00,
2013-01-03 17:16:00,14.2,8.2,30.46,WSW,258,0.0,10.0,77,0.00,,,0.00,0.0,meteohub,2013-01-03 23:16:00,
2013-01-03 17:23:00,14.2,8.2,30.46,SW,223,3.0,10.0,77,0.00,,,0.00,0.0,meteohub,2013-01-03 23:23:00,
2013-01-03 17:29:00,13.8,7.9,30.46,West,262,2.0,8.0,77,0.00,,,0.00,0.0,meteohub,2013-01-03 23:29:00,
2013-01-03 17:35:00,13.8,8.2,30.45,WSW,246,2.0,8.0,78,0.00,,,0.00,0.0,meteohub,2013-01-03 23:35:00,
2013-01-03 17:41:00,13.6,8.1,30.46,SW,223,0.0,5.0,78,0.00,,,0.00,0.0,meteohub,2013-01-03 23:41:00,
2013-01-03 17:47:00,13.5,7.9,30.46,SW,223,4.0,5.0,78,0.00,,,0.00,0.0,meteohub,2013-01-03 23:47:00,
2013-01-03 17:53:00,13.3,7.7,30.46,SW,227,1.0,4.0,78,0.00,,,0.00,0.0,meteohub,2013-01-03 23:53:00,
2013-01-03 17:59:00,13.3,8.1,30.45,SSW,201,1.0,5.0,79,0.00,,,0.00,0.0,meteohub,2013-01-03 23:59:00,
2013-01-03 18:06:00,13.1,7.9,30.45,SSW,202,3.0,7.0,79,0.00,,,0.00,0.0,meteohub,2013-01-04 00:06:00,
2013-01-03 18:12:00,12.9,7.7,30.45,South,190,2.0,7.0,79,0.00,,,0.00,0.0,meteohub,2013-01-04 00:12:00,
2013-01-03 18:18:00,12.7,7.7,30.45,SSW,198,1.0,6.0,80,0.00,,,0.00,0.0,meteohub,2013-01-04 00:18:00,
2013-01-03 18:24:00,12.7,7.7,30.45,South,183,2.0,6.0,80,0.00,,,0.00,0.0,meteohub,2013-01-04 00:24:00,
2013-01-03 18:30:00,12.6,7.5,30.44,SW,214,2.0,6.0,80,0.00,,,0.00,0.0,meteohub,2013-01-04 00:30:00,
2013-01-03 18:36:00,12.4,7.7,30.44,SSW,208,2.0,8.0,81,0.00,,,0.00,0.0,meteohub,2013-01-04 00:36:00,
2013-01-03 18:43:00,12.4,7.7,30.44,SW,221,0.0,8.0,81,0.00,,,0.00,0.0,meteohub,2013-01-04 00:43:00,
2013-01-03 18:49:00,12.2,7.7,30.45,SSW,209,1.0,8.0,82,0.00,,,0.00,0.0,meteohub,2013-01-04 00:49:00,
2013-01-03 18:55:00,12.0,7.5,30.45,SSW,210,3.0,6.0,82,0.00,,,0.00,0.0,meteohub,2013-01-04 00:55:00,
2013-01-03 19:01:00,12.0,7.9,30.45,SW,222,1.0,7.0,83,0.00,,,0.00,0.0,meteohub,2013-01-04 01:01:00,
2013-01-03 19:07:00,12.0,7.9,30.44,SSW,195,3.0,8.0,83,0.00,,,0.00,0.0,meteohub,2013-01-04 01:07:00,
2013-01-03 19:13:00,12.0,7.9,30.43,SW,234,6.0,8.0,83,0.00,,,0.00,0.0,meteohub,2013-01-04 01:13:00,
2013-01-03 19:19:00,12.0,8.1,30.43,South,186,3.0,9.0,84,0.00,,,0.00,0.0,meteohub,2013-01-04 01:19:00,
2013-01-03 19:26:00,12.0,8.1,30.42,SSW,197,4.0,9.0,84,0.00,,,0.00,0.0,meteohub,2013-01-04 01:26:00,
2013-01-03 19:32:00,12.0,8.1,30.42,SSW,192,5.0,7.0,84,0.00,,,0.00,0.0,meteohub,2013-01-04 01:32:00,
2013-01-03 19:38:00,12.0,8.4,30.42,SSW,198,2.0,8.0,85,0.00,,,0.00,0.0,meteohub,2013-01-04 01:38:00,
2013-01-03 19:44:00,12.2,8.6,30.42,SW,217,4.0,8.0,85,0.00,,,0.00,0.0,meteohub,2013-01-04 01:44:00,
2013-01-03 19:50:00,12.4,8.8,30.41,SSW,209,4.0,8.0,85,0.00,,,0.00,0.0,meteohub,2013-01-04 01:50:00,
2013-01-03 19:56:00,12.4,8.8,30.41,South,181,4.0,8.0,85,0.00,,,0.00,0.0,meteohub,2013-01-04 01:56:00,
2013-01-03 20:02:00,12.4,8.8,30.41,SSW,202,1.0,8.0,85,0.00,,,0.00,0.0,meteohub,2013-01-04 02:02:00,
2013-01-03 20:07:00,12.4,9.0,30.41,SW,216,3.0,8.0,86,0.00,,,0.00,0.0,meteohub,2013-01-04 02:07:00,
2013-01-03 20:13:00,12.4,9.0,30.40,SSW,198,3.0,6.0,86,0.00,,,0.00,0.0,meteohub,2013-01-04 02:13:00,
2013-01-03 20:19:00,12.6,9.1,30.40,South,180,4.0,7.0,86,0.00,,,0.00,0.0,meteohub,2013-01-04 02:19:00,
2013-01-03 20:25:00,12.7,9.3,30.40,South,190,2.0,7.0,86,0.00,,,0.00,0.0,meteohub,2013-01-04 02:25:00,
2013-01-03 20:31:00,12.7,9.3,30.40,South,182,1.0,7.0,86,0.00,,,0.00,0.0,meteohub,2013-01-04 02:31:00,
2013-01-03 20:37:00,12.9,9.5,30.39,South,188,3.0,7.0,86,0.00,,,0.00,0.0,meteohub,2013-01-04 02:37:00,
2013-01-03 20:43:00,12.9,9.5,30.38,South,190,4.0,7.0,86,0.00,,,0.00,0.0,meteohub,2013-01-04 02:43:00,
2013-01-03 20:50:00,13.3,10.2,30.38,South,177,5.0,12.0,87,0.00,,,0.00,0.0,meteohub,2013-01-04 02:50:00,
2013-01-03 20:56:00,13.6,10.2,30.37,SSW,205,2.0,12.0,86,0.00,,,0.00,0.0,meteohub,2013-01-04 02:56:00,
2013-01-03 21:02:00,13.8,10.4,30.37,SW,224,6.0,11.0,86,0.00,,,0.00,0.0,meteohub,2013-01-04 03:02:00,
2013-01-03 21:08:00,14.0,10.6,30.37,SW,214,2.0,11.0,86,0.00,,,0.00,0.0,meteohub,2013-01-04 03:08:00,
2013-01-03 21:14:00,14.2,10.8,30.37,SW,219,2.0,8.0,86,0.00,,,0.00,0.0,meteohub,2013-01-04 03:14:00,
2013-01-03 21:20:00,14.2,10.8,30.37,SW,225,1.0,8.0,86,0.00,,,0.00,0.0,meteohub,2013-01-04 03:20:00,
2013-01-03 21:26:00,14.4,11.1,30.37,WSW,249,1.0,8.0,87,0.00,,,0.00,0.0,meteohub,2013-01-04 03:26:00,
2013-01-03 21:32:00,14.5,11.3,30.37,SSW,211,2.0,8.0,87,0.00,,,0.00,0.0,meteohub,2013-01-04 03:32:00,
2013-01-03 21:37:00,14.7,11.5,30.36,SSW,204,7.0,9.0,87,0.00,,,0.00,0.0,meteohub,2013-01-04 03:37:00,
2013-01-03 21:43:00,15.1,11.8,30.35,South,190,3.0,9.0,87,0.00,,,0.00,0.0,meteohub,2013-01-04 03:43:00,
2013-01-03 21:49:00,15.1,11.8,30.35,South,182,7.0,9.0,87,0.00,,,0.00,0.0,meteohub,2013-01-04 03:49:00,
2013-01-03 21:55:00,15.3,12.0,30.35,SW,220,2.0,9.0,87,0.00,,,0.00,0.0,meteohub,2013-01-04 03:55:00,
2013-01-03 22:01:00,15.3,12.0,30.35,SW,229,3.0,10.0,87,0.00,,,0.00,0.0,meteohub,2013-01-04 04:01:00,
2013-01-03 22:07:00,15.3,12.0,30.35,WSW,241,6.0,10.0,87,0.00,,,0.00,0.0,meteohub,2013-01-04 04:07:00,
2013-01-03 22:14:00,15.3,12.0,30.35,WSW,244,7.0,11.0,87,0.00,,,0.00,0.0,meteohub,2013-01-04 04:14:00,
2013-01-03 22:20:00,15.3,12.0,30.35,SSW,207,6.0,11.0,87,0.00,,,0.00,0.0,meteohub,2013-01-04 04:20:00,
2013-01-03 22:26:00,15.3,12.0,30.35,WSW,238,6.0,11.0,87,0.00,,,0.00,0.0,meteohub,2013-01-04 04:26:00,
2013-01-03 22:32:00,15.1,11.8,30.35,WSW,252,4.0,11.0,87,0.00,,,0.00,0.0,meteohub,2013-01-04 04:32:00,
2013-01-03 22:38:00,15.1,11.8,30.35,South,178,4.0,8.0,87,0.00,,,0.00,0.0,meteohub,2013-01-04 04:38:00,
2013-01-03 22:44:00,15.1,11.8,30.35,South,178,0.0,7.0,87,0.00,,,0.00,0.0,meteohub,2013-01-04 04:44:00,
2013-01-03 22:50:00,15.1,11.8,30.35,SSW,201,2.0,7.0,87,0.00,,,0.00,0.0,meteohub,2013-01-04 04:50:00,
2013-01-03 22:57:00,14.9,11.7,30.35,SSW,200,4.0,7.0,87,0.00,,,0.00,0.0,meteohub,2013-01-04 04:57:00,
2013-01-03 23:02:00,14.9,12.0,30.34,SSW,202,2.0,7.0,88,0.00,,,0.00,0.0,meteohub,2013-01-04 05:02:00,
2013-01-03 23:04:00,14.9,12.0,30.34,South,190,1.0,7.0,88,0.00,,,0.00,0.0,meteohub,2013-01-04 05:04:00,
2013-01-03 23:09:00,15.1,12.2,30.34,South,187,4.0,6.0,88,0.00,,,0.00,0.0,meteohub,2013-01-04 05:09:00,
2013-01-03 23:15:00,15.1,12.2,30.34,South,180,3.0,11.0,88,0.00,,,0.00,0.0,meteohub,2013-01-04 05:15:00,
2013-01-03 23:21:00,15.1,12.2,30.33,SSW,192,2.0,11.0,88,0.00,,,0.00,0.0,meteohub,2013-01-04 05:21:00,
2013-01-03 23:27:00,15.1,12.2,30.33,SSW,201,2.0,9.0,88,0.00,,,0.00,0.0,meteohub,2013-01-04 05:27:00,
2013-01-03 23:33:00,15.3,12.4,30.33,SW,225,3.0,9.0,88,0.00,,,0.00,0.0,meteohub,2013-01-04 05:33:00,
2013-01-03 23:39:00,15.4,12.6,30.32,SSW,196,3.0,10.0,88,0.00,,,0.00,0.0,meteohub,2013-01-04 05:39:00,
2013-01-03 23:45:00,15.4,12.6,30.32,SSW,194,1.0,10.0,88,0.00,,,0.00,0.0,meteohub,2013-01-04 05:45:00,
2013-01-03 23:52:00,15.4,12.6,30.33,South,190,2.0,11.0,88,0.00,,,0.00,0.0,meteohub,2013-01-04 05:52:00,
2013-01-03 23:58:00,15.4,12.6,30.32,South,180,3.0,11.0,88,0.00,,,0.00,0.0,meteohub,2013-01-04 05:58:00,